sensor_id;sensor_type;location;lat;lon;timestamp;temperature;humidity
38436;DHT22;24220;48.168;14.024;2023-02-22T00:00:54;12.30;60.20
38436;DHT22;24220;48.168;14.024;2023-02-22T00:03:27;12.30;60.20
38436;DHT22;24220;48.168;14.024;2023-02-22T00:05:58;12.20;60.10
38436;DHT22;24220;48.168;14.024;2023-02-22T00:08:28;12.20;60.10
38436;DHT22;24220;48.168;14.024;2023-02-22T00:11:05;12.20;60.20
38436;DHT22;24220;48.168;14.024;2023-02-22T00:13:43;12.10;60.20
38436;DHT22;24220;48.168;14.024;2023-02-22T00:16:23;12.10;60.30
38436;DHT22;24220;48.168;14.024;2023-02-22T00:18:53;12.10;60.50
38436;DHT22;24220;48.168;14.024;2023-02-22T00:21:21;12.10;60.50
38436;DHT22;24220;48.168;14.024;2023-02-22T00:23:54;12.00;60.40
38436;DHT22;24220;48.168;14.024;2023-02-22T00:26:21;12.00;60.40
38436;DHT22;24220;48.168;14.024;2023-02-22T00:28:53;12.00;60.50
38436;DHT22;24220;48.168;14.024;2023-02-22T00:31:21;12.00;60.40
38436;DHT22;24220;48.168;14.024;2023-02-22T00:33:48;12.00;60.30
38436;DHT22;24220;48.168;14.024;2023-02-22T00:36:18;12.00;60.20
38436;DHT22;24220;48.168;14.024;2023-02-22T00:38:45;12.00;60.20
38436;DHT22;24220;48.168;14.024;2023-02-22T00:41:12;11.90;60.30
38436;DHT22;24220;48.168;14.024;2023-02-22T00:43:43;11.90;60.30
38436;DHT22;24220;48.168;14.024;2023-02-22T00:46:12;11.90;60.40
38436;DHT22;24220;48.168;14.024;2023-02-22T00:48:40;11.80;60.40
38436;DHT22;24220;48.168;14.024;2023-02-22T00:51:11;11.80;60.40
38436;DHT22;24220;48.168;14.024;2023-02-22T00:53:39;11.80;60.50
38436;DHT22;24220;48.168;14.024;2023-02-22T00:56:11;11.70;60.50
38436;DHT22;24220;48.168;14.024;2023-02-22T00:58:40;11.70;60.40
38436;DHT22;24220;48.168;14.024;2023-02-22T01:01:08;11.70;60.40
38436;DHT22;24220;48.168;14.024;2023-02-22T01:03:35;11.70;60.30
38436;DHT22;24220;48.168;14.024;2023-02-22T01:06:07;11.70;60.30
38436;DHT22;24220;48.168;14.024;2023-02-22T01:08:37;11.70;60.30
38436;DHT22;24220;48.168;14.024;2023-02-22T01:11:04;11.60;60.50
38436;DHT22;24220;48.168;14.024;2023-02-22T01:13:31;11.60;60.40
38436;DHT22;24220;48.168;14.024;2023-02-22T01:16:01;11.60;60.40
38436;DHT22;24220;48.168;14.024;2023-02-22T01:18:29;11.50;60.40
38436;DHT22;24220;48.168;14.024;2023-02-22T01:20:56;11.50;60.40
38436;DHT22;24220;48.168;14.024;2023-02-22T01:23:27;11.50;60.50
38436;DHT22;24220;48.168;14.024;2023-02-22T01:25:55;11.50;60.60
38436;DHT22;24220;48.168;14.024;2023-02-22T01:28:22;11.50;60.60
38436;DHT22;24220;48.168;14.024;2023-02-22T01:30:49;11.50;60.60
38436;DHT22;24220;48.168;14.024;2023-02-22T01:33:17;11.50;60.60
38436;DHT22;24220;48.168;14.024;2023-02-22T01:35:46;11.40;60.60
38436;DHT22;24220;48.168;14.024;2023-02-22T01:38:16;11.40;60.50
38436;DHT22;24220;48.168;14.024;2023-02-22T01:40:49;11.40;60.50
38436;DHT22;24220;48.168;14.024;2023-02-22T01:43:32;11.40;60.50
38436;DHT22;24220;48.168;14.024;2023-02-22T01:46:06;11.40;60.50
38436;DHT22;24220;48.168;14.024;2023-02-22T01:51:32;11.30;60.30
38436;DHT22;24220;48.168;14.024;2023-02-22T01:54:08;11.30;60.40
38436;DHT22;24220;48.168;14.024;2023-02-22T01:56:39;11.30;60.50
38436;DHT22;24220;48.168;14.024;2023-02-22T01:59:12;11.30;60.40
38436;DHT22;24220;48.168;14.024;2023-02-22T02:01:42;11.30;60.30
38436;DHT22;24220;48.168;14.024;2023-02-22T02:04:20;11.30;60.40
38436;DHT22;24220;48.168;14.024;2023-02-22T02:06:53;11.30;60.30
38436;DHT22;24220;48.168;14.024;2023-02-22T02:12:01;11.20;60.40
38436;DHT22;24220;48.168;14.024;2023-02-22T02:14:31;11.20;60.40
38436;DHT22;24220;48.168;14.024;2023-02-22T02:17:09;11.10;60.30
38436;DHT22;24220;48.168;14.024;2023-02-22T02:32:52;11.00;60.30
38436;DHT22;24220;48.168;14.024;2023-02-22T02:38:15;11.00;60.30
38436;DHT22;24220;48.168;14.024;2023-02-22T02:41:26;11.00;60.20
38436;DHT22;24220;48.168;14.024;2023-02-22T02:49:11;10.90;60.30
38436;DHT22;24220;48.168;14.024;2023-02-22T02:51:45;10.90;60.40
38436;DHT22;24220;48.168;14.024;2023-02-22T02:54:15;10.90;60.40
38436;DHT22;24220;48.168;14.024;2023-02-22T02:56:44;10.80;60.50
38436;DHT22;24220;48.168;14.024;2023-02-22T02:59:33;10.80;60.60
38436;DHT22;24220;48.168;14.024;2023-02-22T03:10:29;10.70;60.40
38436;DHT22;24220;48.168;14.024;2023-02-22T03:15:56;10.70;60.40
38436;DHT22;24220;48.168;14.024;2023-02-22T03:26:44;10.60;61.00
38436;DHT22;24220;48.168;14.024;2023-02-22T03:29:19;10.60;60.30
38436;DHT22;24220;48.168;14.024;2023-02-22T03:31:52;10.60;60.30
38436;DHT22;24220;48.168;14.024;2023-02-22T03:34:25;10.60;60.30
38436;DHT22;24220;48.168;14.024;2023-02-22T03:36:59;10.50;60.30
38436;DHT22;24220;48.168;14.024;2023-02-22T03:39:28;10.50;60.50
38436;DHT22;24220;48.168;14.024;2023-02-22T03:42:03;10.50;60.50
38436;DHT22;24220;48.168;14.024;2023-02-22T03:44:35;10.50;60.40
38436;DHT22;24220;48.168;14.024;2023-02-22T03:47:10;10.50;60.30
38436;DHT22;24220;48.168;14.024;2023-02-22T03:49:44;10.50;60.30
38436;DHT22;24220;48.168;14.024;2023-02-22T03:52:14;10.50;60.30
38436;DHT22;24220;48.168;14.024;2023-02-22T03:54:44;10.40;60.30
38436;DHT22;24220;48.168;14.024;2023-02-22T03:59:39;10.40;60.40
38436;DHT22;24220;48.168;14.024;2023-02-22T04:02:06;10.40;60.40
38436;DHT22;24220;48.168;14.024;2023-02-22T04:04:34;10.40;60.40
38436;DHT22;24220;48.168;14.024;2023-02-22T04:07:01;10.30;60.40
38436;DHT22;24220;48.168;14.024;2023-02-22T04:09:29;10.30;60.40
38436;DHT22;24220;48.168;14.024;2023-02-22T04:11:56;10.30;60.30
38436;DHT22;24220;48.168;14.024;2023-02-22T04:14:23;10.30;60.20
38436;DHT22;24220;48.168;14.024;2023-02-22T04:16:50;10.30;60.20
38436;DHT22;24220;48.168;14.024;2023-02-22T04:19:18;10.30;60.20
38436;DHT22;24220;48.168;14.024;2023-02-22T04:21:45;10.20;60.20
38436;DHT22;24220;48.168;14.024;2023-02-22T04:24:13;10.20;60.30
38436;DHT22;24220;48.168;14.024;2023-02-22T04:26:42;10.20;60.30
38436;DHT22;24220;48.168;14.024;2023-02-22T04:29:12;10.20;60.30
38436;DHT22;24220;48.168;14.024;2023-02-22T04:31:39;10.20;60.30
38436;DHT22;24220;48.168;14.024;2023-02-22T04:34:06;10.20;60.30
38436;DHT22;24220;48.168;14.024;2023-02-22T04:36:38;10.20;60.30
38436;DHT22;24220;48.168;14.024;2023-02-22T04:39:08;10.10;60.20
38436;DHT22;24220;48.168;14.024;2023-02-22T04:41:35;10.10;60.20
38436;DHT22;24220;48.168;14.024;2023-02-22T04:44:03;10.10;60.20
38436;DHT22;24220;48.168;14.024;2023-02-22T04:46:32;10.10;60.30
38436;DHT22;24220;48.168;14.024;2023-02-22T04:49:00;10.00;60.40
38436;DHT22;24220;48.168;14.024;2023-02-22T04:51:28;10.00;60.50
38436;DHT22;24220;48.168;14.024;2023-02-22T04:53:56;10.00;60.50
38436;DHT22;24220;48.168;14.024;2023-02-22T04:56:25;10.00;60.50
38436;DHT22;24220;48.168;14.024;2023-02-22T04:58:53;10.00;60.40
38436;DHT22;24220;48.168;14.024;2023-02-22T05:01:20;10.00;60.40
38436;DHT22;24220;48.168;14.024;2023-02-22T05:03:47;10.00;60.50
38436;DHT22;24220;48.168;14.024;2023-02-22T05:06:17;10.00;60.70
38436;DHT22;24220;48.168;14.024;2023-02-22T05:08:45;10.00;60.70
38436;DHT22;24220;48.168;14.024;2023-02-22T05:11:12;10.00;60.70
38436;DHT22;24220;48.168;14.024;2023-02-22T05:13:41;10.00;60.60
38436;DHT22;24220;48.168;14.024;2023-02-22T05:16:08;10.00;60.60
38436;DHT22;24220;48.168;14.024;2023-02-22T05:18:38;10.00;60.50
38436;DHT22;24220;48.168;14.024;2023-02-22T05:21:05;10.00;60.30
38436;DHT22;24220;48.168;14.024;2023-02-22T05:23:33;10.10;60.50
38436;DHT22;24220;48.168;14.024;2023-02-22T05:26:00;10.00;60.30
38436;DHT22;24220;48.168;14.024;2023-02-22T05:28:30;10.10;60.30
38436;DHT22;24220;48.168;14.024;2023-02-22T05:30:58;10.00;60.30
38436;DHT22;24220;48.168;14.024;2023-02-22T05:33:25;10.00;60.30
38436;DHT22;24220;48.168;14.024;2023-02-22T05:35:53;9.90;60.30
38436;DHT22;24220;48.168;14.024;2023-02-22T05:38:24;10.00;60.30
38436;DHT22;24220;48.168;14.024;2023-02-22T05:40:54;9.90;60.30
38436;DHT22;24220;48.168;14.024;2023-02-22T05:43:22;9.90;60.20
38436;DHT22;24220;48.168;14.024;2023-02-22T05:45:50;9.90;60.20
38436;DHT22;24220;48.168;14.024;2023-02-22T05:48:20;9.90;60.30
38436;DHT22;24220;48.168;14.024;2023-02-22T05:50:48;9.80;60.30
38436;DHT22;24220;48.168;14.024;2023-02-22T05:53:16;9.90;60.30
38436;DHT22;24220;48.168;14.024;2023-02-22T05:55:43;9.80;60.30
38436;DHT22;24220;48.168;14.024;2023-02-22T05:58:12;9.80;60.10
38436;DHT22;24220;48.168;14.024;2023-02-22T06:00:39;9.80;60.10
38436;DHT22;24220;48.168;14.024;2023-02-22T06:03:12;9.80;60.20
38436;DHT22;24220;48.168;14.024;2023-02-22T06:05:39;9.80;60.30
38436;DHT22;24220;48.168;14.024;2023-02-22T06:08:07;9.80;60.30
38436;DHT22;24220;48.168;14.024;2023-02-22T06:10:39;9.70;60.30
38436;DHT22;24220;48.168;14.024;2023-02-22T06:13:06;9.70;60.40
38436;DHT22;24220;48.168;14.024;2023-02-22T06:15:34;9.80;60.50
38436;DHT22;24220;48.168;14.024;2023-02-22T06:18:01;9.80;60.60
38436;DHT22;24220;48.168;14.024;2023-02-22T06:20:29;9.70;60.60
38436;DHT22;24220;48.168;14.024;2023-02-22T06:23:03;9.70;60.70
38436;DHT22;24220;48.168;14.024;2023-02-22T06:25:35;9.80;60.80
38436;DHT22;24220;48.168;14.024;2023-02-22T06:28:05;9.80;60.90
38436;DHT22;24220;48.168;14.024;2023-02-22T06:30:32;9.70;60.90
38436;DHT22;24220;48.168;14.024;2023-02-22T06:32:59;9.80;61.00
38436;DHT22;24220;48.168;14.024;2023-02-22T06:35:27;9.80;61.00
38436;DHT22;24220;48.168;14.024;2023-02-22T06:37:56;9.80;61.00
38436;DHT22;24220;48.168;14.024;2023-02-22T06:40:24;9.80;61.00
38436;DHT22;24220;48.168;14.024;2023-02-22T06:42:56;9.80;61.00
38436;DHT22;24220;48.168;14.024;2023-02-22T06:45:24;9.90;61.10
38436;DHT22;24220;48.168;14.024;2023-02-22T06:47:52;9.80;61.00
38436;DHT22;24220;48.168;14.024;2023-02-22T06:50:29;9.90;61.10
38436;DHT22;24220;48.168;14.024;2023-02-22T06:53:02;9.80;61.10
38436;DHT22;24220;48.168;14.024;2023-02-22T06:55:32;9.90;61.10
38436;DHT22;24220;48.168;14.024;2023-02-22T06:58:03;9.90;61.20
38436;DHT22;24220;48.168;14.024;2023-02-22T07:00:31;9.90;61.20
38436;DHT22;24220;48.168;14.024;2023-02-22T07:02:59;9.90;61.20
38436;DHT22;24220;48.168;14.024;2023-02-22T07:05:29;10.00;61.20
38436;DHT22;24220;48.168;14.024;2023-02-22T07:08:05;10.00;61.20
38436;DHT22;24220;48.168;14.024;2023-02-22T07:10:34;10.00;61.40
38436;DHT22;24220;48.168;14.024;2023-02-22T07:13:02;10.00;61.40
38436;DHT22;24220;48.168;14.024;2023-02-22T07:15:33;10.10;61.50
38436;DHT22;24220;48.168;14.024;2023-02-22T07:18:01;10.10;61.70
38436;DHT22;24220;48.168;14.024;2023-02-22T07:20:33;10.10;61.80
38436;DHT22;24220;48.168;14.024;2023-02-22T07:23:00;10.10;62.00
38436;DHT22;24220;48.168;14.024;2023-02-22T07:25:30;10.20;62.10
38436;DHT22;24220;48.168;14.024;2023-02-22T07:28:00;10.20;62.30
38436;DHT22;24220;48.168;14.024;2023-02-22T07:30:29;10.30;62.40
38436;DHT22;24220;48.168;14.024;2023-02-22T07:32:59;10.40;62.60
38436;DHT22;24220;48.168;14.024;2023-02-22T07:35:37;10.50;62.60
38436;DHT22;24220;48.168;14.024;2023-02-22T07:38:06;10.60;62.60
38436;DHT22;24220;48.168;14.024;2023-02-22T07:40:36;10.70;62.40
38436;DHT22;24220;48.168;14.024;2023-02-22T07:45:44;11.00;62.00
38436;DHT22;24220;48.168;14.024;2023-02-22T07:48:16;11.10;61.90
38436;DHT22;24220;48.168;14.024;2023-02-22T07:50:44;11.10;61.80
38436;DHT22;24220;48.168;14.024;2023-02-22T07:53:14;11.20;61.60
38436;DHT22;24220;48.168;14.024;2023-02-22T07:55:41;11.20;61.50
38436;DHT22;24220;48.168;14.024;2023-02-22T07:58:12;11.30;61.40
38436;DHT22;24220;48.168;14.024;2023-02-22T08:00:41;11.30;61.30
38436;DHT22;24220;48.168;14.024;2023-02-22T08:03:11;11.40;61.50
38436;DHT22;24220;48.168;14.024;2023-02-22T08:05:44;11.40;61.60
38436;DHT22;24220;48.168;14.024;2023-02-22T08:08:12;11.50;61.50
38436;DHT22;24220;48.168;14.024;2023-02-22T08:10:44;11.60;61.60
38436;DHT22;24220;48.168;14.024;2023-02-22T08:13:12;11.60;61.60
38436;DHT22;24220;48.168;14.024;2023-02-22T08:15:40;11.60;61.50
38436;DHT22;24220;48.168;14.024;2023-02-22T08:18:12;11.70;61.70
38436;DHT22;24220;48.168;14.024;2023-02-22T08:20:41;11.70;61.60
38436;DHT22;24220;48.168;14.024;2023-02-22T08:23:10;11.80;61.80
38436;DHT22;24220;48.168;14.024;2023-02-22T08:25:37;11.80;61.80
38436;DHT22;24220;48.168;14.024;2023-02-22T08:28:12;11.90;61.80
38436;DHT22;24220;48.168;14.024;2023-02-22T08:30:40;11.90;61.80
38436;DHT22;24220;48.168;14.024;2023-02-22T08:33:12;12.00;61.90
38436;DHT22;24220;48.168;14.024;2023-02-22T08:35:42;12.10;61.80
38436;DHT22;24220;48.168;14.024;2023-02-22T08:38:23;12.10;61.80
38436;DHT22;24220;48.168;14.024;2023-02-22T08:40:51;12.20;62.10
38436;DHT22;24220;48.168;14.024;2023-02-22T08:43:19;12.30;62.00
38436;DHT22;24220;48.168;14.024;2023-02-22T08:45:50;12.40;62.20
38436;DHT22;24220;48.168;14.024;2023-02-22T08:48:18;12.50;62.10
38436;DHT22;24220;48.168;14.024;2023-02-22T08:50:46;12.60;62.00
38436;DHT22;24220;48.168;14.024;2023-02-22T08:53:15;12.70;62.00
38436;DHT22;24220;48.168;14.024;2023-02-22T08:55:43;12.80;61.90
38436;DHT22;24220;48.168;14.024;2023-02-22T08:58:11;12.90;61.90
38436;DHT22;24220;48.168;14.024;2023-02-22T09:00:39;13.10;62.00
38436;DHT22;24220;48.168;14.024;2023-02-22T09:03:09;13.10;62.00
38436;DHT22;24220;48.168;14.024;2023-02-22T09:05:43;13.30;62.10
38436;DHT22;24220;48.168;14.024;2023-02-22T09:08:10;13.40;62.10
38436;DHT22;24220;48.168;14.024;2023-02-22T09:10:40;13.50;62.20
38436;DHT22;24220;48.168;14.024;2023-02-22T09:13:11;13.50;61.90
38436;DHT22;24220;48.168;14.024;2023-02-22T09:15:39;13.70;61.50
38436;DHT22;24220;48.168;14.024;2023-02-22T09:18:10;13.70;61.70
38436;DHT22;24220;48.168;14.024;2023-02-22T09:20:40;13.80;61.50
38436;DHT22;24220;48.168;14.024;2023-02-22T09:23:08;13.90;61.30
38436;DHT22;24220;48.168;14.024;2023-02-22T09:25:38;14.00;61.30
38436;DHT22;24220;48.168;14.024;2023-02-22T09:28:07;14.00;61.20
38436;DHT22;24220;48.168;14.024;2023-02-22T09:30:35;14.10;61.30
38436;DHT22;24220;48.168;14.024;2023-02-22T09:33:06;14.20;61.30
38436;DHT22;24220;48.168;14.024;2023-02-22T09:35:37;14.30;61.30
38436;DHT22;24220;48.168;14.024;2023-02-22T09:38:09;14.30;61.30
38436;DHT22;24220;48.168;14.024;2023-02-22T09:40:40;14.40;61.20
38436;DHT22;24220;48.168;14.024;2023-02-22T09:43:20;14.50;60.80
38436;DHT22;24220;48.168;14.024;2023-02-22T09:46:34;14.60;61.30
38436;DHT22;24220;48.168;14.024;2023-02-22T09:49:29;14.60;61.10
38436;DHT22;24220;48.168;14.024;2023-02-22T09:52:16;14.70;60.90
38436;DHT22;24220;48.168;14.024;2023-02-22T09:54:53;14.80;60.90
38436;DHT22;24220;48.168;14.024;2023-02-22T09:57:30;14.80;60.90
38436;DHT22;24220;48.168;14.024;2023-02-22T10:02:53;14.90;60.80
38436;DHT22;24220;48.168;14.024;2023-02-22T10:05:31;14.90;61.00
38436;DHT22;24220;48.168;14.024;2023-02-22T10:08:07;15.00;61.20
38436;DHT22;24220;48.168;14.024;2023-02-22T10:10:38;15.00;61.20
38436;DHT22;24220;48.168;14.024;2023-02-22T10:13:33;15.10;61.10
38436;DHT22;24220;48.168;14.024;2023-02-22T10:16:07;15.10;61.10
38436;DHT22;24220;48.168;14.024;2023-02-22T10:26:28;15.40;61.20
38436;DHT22;24220;48.168;14.024;2023-02-22T10:31:55;15.60;60.70
38436;DHT22;24220;48.168;14.024;2023-02-22T10:34:26;15.70;61.30
38436;DHT22;24220;48.168;14.024;2023-02-22T10:37:30;15.80;60.90
38436;DHT22;24220;48.168;14.024;2023-02-22T10:40:21;15.80;60.90
38436;DHT22;24220;48.168;14.024;2023-02-22T10:43:03;15.90;60.80
38436;DHT22;24220;48.168;14.024;2023-02-22T10:45:33;16.00;60.50
38436;DHT22;24220;48.168;14.024;2023-02-22T10:48:07;16.00;60.50
38436;DHT22;24220;48.168;14.024;2023-02-22T10:50:41;16.10;60.90
38436;DHT22;24220;48.168;14.024;2023-02-22T10:53:09;16.20;60.50
38436;DHT22;24220;48.168;14.024;2023-02-22T11:04:16;16.40;60.30
38436;DHT22;24220;48.168;14.024;2023-02-22T11:06:47;16.40;60.00
38436;DHT22;24220;48.168;14.024;2023-02-22T11:09:17;16.50;59.50
38436;DHT22;24220;48.168;14.024;2023-02-22T11:11:47;16.50;60.40
38436;DHT22;24220;48.168;14.024;2023-02-22T11:14:27;16.60;59.40
38436;DHT22;24220;48.168;14.024;2023-02-22T11:16:58;16.60;59.30
38436;DHT22;24220;48.168;14.024;2023-02-22T11:19:31;16.70;59.40
38436;DHT22;24220;48.168;14.024;2023-02-22T11:22:17;16.70;59.20
38436;DHT22;24220;48.168;14.024;2023-02-22T11:24:53;16.80;59.20
38436;DHT22;24220;48.168;14.024;2023-02-22T11:27:32;16.80;59.30
38436;DHT22;24220;48.168;14.024;2023-02-22T11:30:27;16.90;59.50
38436;DHT22;24220;48.168;14.024;2023-02-22T11:33:15;16.90;59.70
38436;DHT22;24220;48.168;14.024;2023-02-22T11:35:53;16.90;59.70
38436;DHT22;24220;48.168;14.024;2023-02-22T11:38:23;17.00;58.90
38436;DHT22;24220;48.168;14.024;2023-02-22T11:43:47;17.10;59.70
38436;DHT22;24220;48.168;14.024;2023-02-22T11:46:24;17.20;59.80
38436;DHT22;24220;48.168;14.024;2023-02-22T11:49:00;17.20;59.70
38436;DHT22;24220;48.168;14.024;2023-02-22T11:57:26;17.40;59.30
38436;DHT22;24220;48.168;14.024;2023-02-22T12:00:26;17.40;59.40
38436;DHT22;24220;48.168;14.024;2023-02-22T12:05:53;17.50;59.40
38436;DHT22;24220;48.168;14.024;2023-02-22T12:21:39;17.80;59.50
38436;DHT22;24220;48.168;14.024;2023-02-22T12:24:24;17.90;59.00
38436;DHT22;24220;48.168;14.024;2023-02-22T12:26:58;17.90;58.50
38436;DHT22;24220;48.168;14.024;2023-02-22T12:32:19;18.00;58.60
38436;DHT22;24220;48.168;14.024;2023-02-22T12:35:03;18.00;58.70
38436;DHT22;24220;48.168;14.024;2023-02-22T12:40:26;18.10;58.70
38436;DHT22;24220;48.168;14.024;2023-02-22T12:48:47;18.10;57.80
38436;DHT22;24220;48.168;14.024;2023-02-22T12:51:44;18.20;58.30
38436;DHT22;24220;48.168;14.024;2023-02-22T12:56:54;18.30;58.40
38436;DHT22;24220;48.168;14.024;2023-02-22T12:59:36;18.30;58.20
38436;DHT22;24220;48.168;14.024;2023-02-22T13:02:17;18.30;58.10
38436;DHT22;24220;48.168;14.024;2023-02-22T13:04:45;18.30;57.70
38436;DHT22;24220;48.168;14.024;2023-02-22T13:10:20;18.30;57.10
38436;DHT22;24220;48.168;14.024;2023-02-22T13:13:14;18.40;57.50
38436;DHT22;24220;48.168;14.024;2023-02-22T13:24:31;18.30;57.00
38436;DHT22;24220;48.168;14.024;2023-02-22T13:27:27;18.30;57.10
38436;DHT22;24220;48.168;14.024;2023-02-22T13:29:58;18.30;57.00
38436;DHT22;24220;48.168;14.024;2023-02-22T13:35:36;18.30;56.60
38436;DHT22;24220;48.168;14.024;2023-02-22T13:41:19;18.20;56.80
38436;DHT22;24220;48.168;14.024;2023-02-22T13:47:20;18.20;56.90
38436;DHT22;24220;48.168;14.024;2023-02-22T13:52:55;18.20;57.50
38436;DHT22;24220;48.168;14.024;2023-02-22T13:55:30;18.20;57.40
38436;DHT22;24220;48.168;14.024;2023-02-22T13:58:04;18.10;57.00
38436;DHT22;24220;48.168;14.024;2023-02-22T14:00:53;18.10;57.00
38436;DHT22;24220;48.168;14.024;2023-02-22T14:03:29;18.10;56.90
38436;DHT22;24220;48.168;14.024;2023-02-22T14:06:03;18.10;57.00
38436;DHT22;24220;48.168;14.024;2023-02-22T14:11:00;18.10;56.80
38436;DHT22;24220;48.168;14.024;2023-02-22T14:16:26;18.10;56.60
38436;DHT22;24220;48.168;14.024;2023-02-22T14:22:02;18.10;55.90
38436;DHT22;24220;48.168;14.024;2023-02-22T14:24:50;18.10;56.10
38436;DHT22;24220;48.168;14.024;2023-02-22T14:27:17;18.10;56.10
38436;DHT22;24220;48.168;14.024;2023-02-22T14:29:55;18.10;56.20
38436;DHT22;24220;48.168;14.024;2023-02-22T14:32:33;18.10;56.20
38436;DHT22;24220;48.168;14.024;2023-02-22T14:35:13;18.10;56.10
38436;DHT22;24220;48.168;14.024;2023-02-22T14:37:57;18.10;56.00
38436;DHT22;24220;48.168;14.024;2023-02-22T14:40:28;18.10;55.90
38436;DHT22;24220;48.168;14.024;2023-02-22T14:43:12;18.20;55.90
38436;DHT22;24220;48.168;14.024;2023-02-22T14:45:52;18.10;56.00
38436;DHT22;24220;48.168;14.024;2023-02-22T14:51:23;18.20;55.80
38436;DHT22;24220;48.168;14.024;2023-02-22T14:54:06;18.20;55.60
38436;DHT22;24220;48.168;14.024;2023-02-22T14:56:43;18.20;55.70
38436;DHT22;24220;48.168;14.024;2023-02-22T14:59:19;18.20;55.80
38436;DHT22;24220;48.168;14.024;2023-02-22T15:02:04;18.20;55.50
38436;DHT22;24220;48.168;14.024;2023-02-22T15:04:40;18.20;54.80
38436;DHT22;24220;48.168;14.024;2023-02-22T15:09:48;18.20;55.30
38436;DHT22;24220;48.168;14.024;2023-02-22T15:12:27;18.20;55.20
38436;DHT22;24220;48.168;14.024;2023-02-22T15:15:17;18.20;55.10
38436;DHT22;24220;48.168;14.024;2023-02-22T15:17:52;18.20;55.40
38436;DHT22;24220;48.168;14.024;2023-02-22T15:20:22;18.30;55.30
38436;DHT22;24220;48.168;14.024;2023-02-22T15:22:59;18.20;55.30
38436;DHT22;24220;48.168;14.024;2023-02-22T15:25:28;18.20;55.20
38436;DHT22;24220;48.168;14.024;2023-02-22T15:28:04;18.20;55.20
38436;DHT22;24220;48.168;14.024;2023-02-22T15:30:35;18.20;55.20
38436;DHT22;24220;48.168;14.024;2023-02-22T15:33:29;18.20;55.40
38436;DHT22;24220;48.168;14.024;2023-02-22T15:36:04;18.10;55.80
38436;DHT22;24220;48.168;14.024;2023-02-22T15:38:37;18.20;55.80
38436;DHT22;24220;48.168;14.024;2023-02-22T15:41:15;18.10;55.70
38436;DHT22;24220;48.168;14.024;2023-02-22T15:44:03;18.10;55.70
38436;DHT22;24220;48.168;14.024;2023-02-22T15:46:47;18.10;55.80
38436;DHT22;24220;48.168;14.024;2023-02-22T15:51:42;18.10;56.10
38436;DHT22;24220;48.168;14.024;2023-02-22T15:54:17;18.00;56.00
38436;DHT22;24220;48.168;14.024;2023-02-22T15:56:54;18.00;56.00
38436;DHT22;24220;48.168;14.024;2023-02-22T15:59:24;18.00;56.30
38436;DHT22;24220;48.168;14.024;2023-02-22T16:01:59;18.00;56.30
38436;DHT22;24220;48.168;14.024;2023-02-22T16:04:28;18.00;56.30
38436;DHT22;24220;48.168;14.024;2023-02-22T16:07:05;18.00;56.50
38436;DHT22;24220;48.168;14.024;2023-02-22T16:09:47;18.00;56.50
38436;DHT22;24220;48.168;14.024;2023-02-22T16:12:22;17.90;56.50
38436;DHT22;24220;48.168;14.024;2023-02-22T16:14:50;17.90;56.70
38436;DHT22;24220;48.168;14.024;2023-02-22T16:20:01;17.90;56.80
38436;DHT22;24220;48.168;14.024;2023-02-22T16:22:33;17.80;56.50
38436;DHT22;24220;48.168;14.024;2023-02-22T16:25:34;17.80;56.60
38436;DHT22;24220;48.168;14.024;2023-02-22T16:28:28;17.80;56.50
38436;DHT22;24220;48.168;14.024;2023-02-22T16:31:01;17.80;56.70
38436;DHT22;24220;48.168;14.024;2023-02-22T16:33:29;17.70;56.80
38436;DHT22;24220;48.168;14.024;2023-02-22T16:36:04;17.70;56.90
38436;DHT22;24220;48.168;14.024;2023-02-22T16:38:32;17.70;56.90
38436;DHT22;24220;48.168;14.024;2023-02-22T16:41:00;17.70;57.00
38436;DHT22;24220;48.168;14.024;2023-02-22T16:43:28;17.70;57.10
38436;DHT22;24220;48.168;14.024;2023-02-22T16:46:00;17.60;57.20
38436;DHT22;24220;48.168;14.024;2023-02-22T16:48:29;17.60;57.10
38436;DHT22;24220;48.168;14.024;2023-02-22T16:51:11;17.60;57.30
38436;DHT22;24220;48.168;14.024;2023-02-22T16:53:45;17.50;57.20
38436;DHT22;24220;48.168;14.024;2023-02-22T16:56:15;17.50;57.30
38436;DHT22;24220;48.168;14.024;2023-02-22T16:58:46;17.50;57.40
38436;DHT22;24220;48.168;14.024;2023-02-22T17:01:16;17.50;57.40
38436;DHT22;24220;48.168;14.024;2023-02-22T17:03:44;17.50;57.40
38436;DHT22;24220;48.168;14.024;2023-02-22T17:06:12;17.40;57.30
38436;DHT22;24220;48.168;14.024;2023-02-22T17:08:40;17.40;57.50
38436;DHT22;24220;48.168;14.024;2023-02-22T17:11:11;17.30;57.50
38436;DHT22;24220;48.168;14.024;2023-02-22T17:13:40;17.30;57.60
38436;DHT22;24220;48.168;14.024;2023-02-22T17:16:12;17.30;57.40
38436;DHT22;24220;48.168;14.024;2023-02-22T17:18:40;17.20;57.40
38436;DHT22;24220;48.168;14.024;2023-02-22T17:21:09;17.20;57.50
38436;DHT22;24220;48.168;14.024;2023-02-22T17:23:39;17.20;57.60
38436;DHT22;24220;48.168;14.024;2023-02-22T17:26:06;17.10;57.60
38436;DHT22;24220;48.168;14.024;2023-02-22T17:28:34;17.10;57.70
38436;DHT22;24220;48.168;14.024;2023-02-22T17:31:01;17.10;57.60
38436;DHT22;24220;48.168;14.024;2023-02-22T17:33:32;17.00;57.50
38436;DHT22;24220;48.168;14.024;2023-02-22T17:36:03;17.00;57.60
38436;DHT22;24220;48.168;14.024;2023-02-22T17:38:31;17.00;57.60
38436;DHT22;24220;48.168;14.024;2023-02-22T17:40:58;17.00;57.60
38436;DHT22;24220;48.168;14.024;2023-02-22T17:43:29;17.00;57.80
38436;DHT22;24220;48.168;14.024;2023-02-22T17:45:56;16.90;57.70
38436;DHT22;24220;48.168;14.024;2023-02-22T17:48:25;16.90;57.70
38436;DHT22;24220;48.168;14.024;2023-02-22T17:50:55;16.90;57.80
38436;DHT22;24220;48.168;14.024;2023-02-22T17:53:22;16.90;57.70
38436;DHT22;24220;48.168;14.024;2023-02-22T17:55:51;16.90;57.50
38436;DHT22;24220;48.168;14.024;2023-02-22T17:58:19;16.80;57.60
38436;DHT22;24220;48.168;14.024;2023-02-22T18:00:50;16.80;57.40
38436;DHT22;24220;48.168;14.024;2023-02-22T18:03:25;16.80;57.40
38436;DHT22;24220;48.168;14.024;2023-02-22T18:05:58;16.70;57.50
38436;DHT22;24220;48.168;14.024;2023-02-22T18:08:29;16.70;57.30
38436;DHT22;24220;48.168;14.024;2023-02-22T18:11:02;16.60;57.00
38436;DHT22;24220;48.168;14.024;2023-02-22T18:13:31;16.60;57.00
38436;DHT22;24220;48.168;14.024;2023-02-22T18:15:58;16.60;57.20
38436;DHT22;24220;48.168;14.024;2023-02-22T18:18:29;16.60;57.10
38436;DHT22;24220;48.168;14.024;2023-02-22T18:20:56;16.50;56.90
38436;DHT22;24220;48.168;14.024;2023-02-22T18:23:29;16.50;57.10
38436;DHT22;24220;48.168;14.024;2023-02-22T18:25:58;16.40;57.00